• Join FlightAware (Why Join?)
  • Login
  • US Flag 
04:45AM EST


 

Airport Tracker/Info


-or-


 

Live Flight TrackerFlight Track Log ✈ CES5696 ✈ 22-Jun-2014 ✈ ZHLY / LYA - ZBAA / PEK

Flight Track Log - Related Links

Times and Time Zones

All times are in EDT time to prevent confusion due to time zone crossing. See the CES5696 flight status page for this flight to view local times or setup timezone preferences in your user account.

Time Position Orientation Groundspeed Altitude Reporting Facility
EDT Latitude Longitude Course Direction KTS MPH feet Rate Location/Type
10:42AM 36.8388 113.9530 31° Northeast  Level Estimated
10:43AM 36.9296 114.0229 32° Northeast  Level Estimated
10:44AM 37.0203 114.0930 32° Northeast  Level Estimated
10:45AM 37.1109 114.1633 32° Northeast  Level Estimated
10:46AM 37.2015 114.2337 32° Northeast  Level Estimated
10:47AM 37.2921 114.3044 32° Northeast  Level Estimated
10:48AM 37.3826 114.3751 32° Northeast  Level Estimated
10:49AM 37.4731 114.4461 32° Northeast  Level Estimated
10:50AM 37.5635 114.5172 32° Northeast  Level Estimated
10:51AM 37.6539 114.5885 32° Northeast  Level Estimated
10:52AM 37.7443 114.6600 32° Northeast  Level Estimated
10:53AM 37.8346 114.7317 32° Northeast  Level Estimated
10:54AM 37.8988 114.7827 32° Northeast  Level Estimated
10:55AM 37.9629 114.8338 32° Northeast  Level Estimated
10:56AM 38.0271 114.8850 32° Northeast  Level Estimated
10:57AM 38.0912 114.9363 32° Northeast  Level Estimated
10:58AM 38.1552 114.9877 32° Northeast  Level Estimated
10:59AM 38.2193 115.0392 32° Northeast  Level Estimated
11:00AM 38.2833 115.0908 32° Northeast  Level Estimated
11:01AM 38.3474 115.1425 32° Northeast  Level Estimated
11:02AM 38.4114 115.1942 32° Northeast  Level Estimated
11:03AM 38.4753 115.2461 32° Northeast  Level Estimated
11:04AM 38.5393 115.2980 32° Northeast  Level Estimated
11:05AM 38.6032 115.3501 32° Northeast  Level Estimated
11:06AM 38.6671 115.4022 32° Northeast  Level Estimated
11:07AM 38.7310 115.4544 33° Northeast  Level Estimated
11:08AM 38.7948 115.5067 33° Northeast  Level Estimated
11:09AM 38.8587 115.5591 33° Northeast  Level Estimated
11:10AM 38.9225 115.6116 33° Northeast  Level Estimated
11:11AM 38.9863 115.6642 33° Northeast  Level Estimated
11:12AM 39.0500 115.7169 33° Northeast  Level Estimated
11:13AM 39.1137 115.7697 33° Northeast  Level Estimated
11:14AM 39.1775 115.8226 33° Northeast  Level Estimated
11:15AM 39.2411 115.8756 33° Northeast  Level Estimated
11:16AM 39.3048 115.9286 33° Northeast  Level Estimated
11:17AM 39.3685 115.9818 33° Northeast  Level Estimated
11:18AM 39.4321 116.0351 33° Northeast  Level Estimated
11:19AM 39.4957 116.0885 33° Northeast  Level Estimated
11:20AM 39.5882 116.1664 33° Northeast  Level Estimated
11:21AM 39.6807 116.2444 33° Northeast  Level Estimated
11:22AM 39.7732 116.3227 33° Northeast  Level Estimated
11:23AM 39.8656 116.4013 33° Northeast  Level Estimated
11:24AM 39.9579 116.4800 33° Northeast  Level Estimated
11:25AM 40.0502 116.5589 33° Northeast  Level Estimated
11:26AM 40.0801 116.5846 33° Northeast  Level Estimated
11:27AM 40.0801 116.5846 North  Level Estimated
11:28AM 40.0801 116.5846 North  Level Estimated
11:29AM 40.0801 116.5846 North  Level Estimated
11:30AM 40.0801 116.5846 North  Level Estimated
11:31AM 40.0801 116.5846 North  Level Estimated
11:32AM 40.0801 116.5846 North  Level Estimated